Time;durP1;ratioP1;P1;durP2;ratioP2;P2;SDS_P1;SDS_P2;PMS_P1;PMS_P2;Temp;Humidity;BMP_temperature;BMP_pressure;BME280_temperature;BME280_humidity;BME280_pressure;Samples;Min_cycle;Max_cycle;Signal;HPM_P1;HPM_P2
2023/11/29 00:00:44;;;;;;;3.47;2.80;;;;;;;;;;5183424;28;20377;-57
2023/11/29 00:03:16;;;;;;;3.22;2.45;;;;;;;;;;5184439;28;20511;-57
2023/11/29 00:05:47;;;;;;;3.65;2.67;;;;;;;;;;5199955;28;20037;-56
2023/11/29 00:08:19;;;;;;;6.18;3.42;;;;;;;;;;5184593;28;20493;-57
2023/11/29 00:10:50;;;;;;;3.35;2.70;;;;;;;;;;5182790;28;20077;-57
2023/11/29 00:13:21;;;;;;;2.85;2.25;;;;;;;;;;5184461;28;20044;-58
2023/11/29 00:15:53;;;;;;;3.33;2.50;;;;;;;;;;5184423;28;20077;-57
2023/11/29 00:18:24;;;;;;;3.10;2.37;;;;;;;;;;5183191;28;20100;-58
2023/11/29 00:20:55;;;;;;;3.58;2.78;;;;;;;;;;5184329;28;20237;-58
2023/11/29 00:23:26;;;;;;;4.30;2.75;;;;;;;;;;5184361;28;20677;-58
2023/11/29 00:25:57;;;;;;;3.83;2.58;;;;;;;;;;5199451;28;20041;-58
2023/11/29 00:28:28;;;;;;;4.43;2.90;;;;;;;;;;5183069;28;20121;-58
2023/11/29 00:30:59;;;;;;;3.40;2.38;;;;;;;;;;5183728;28;20042;-58
2023/11/29 00:33:30;;;;;;;4.55;2.45;;;;;;;;;;5182676;28;20131;-58
2023/11/29 00:36:03;;;;;;;4.50;2.80;;;;;;;;;;5182327;28;20046;-58
2023/11/29 00:38:35;;;;;;;4.15;2.58;;;;;;;;;;5184127;28;20044;-57
2023/11/29 00:41:06;;;;;;;4.05;2.30;;;;;;;;;;5183596;28;20056;-57
2023/11/29 00:43:39;;;;;;;2.50;2.07;;;;;;;;;;5182982;28;20404;-57
2023/11/29 00:46:10;;;;;;;3.13;2.17;;;;;;;;;;5198977;28;20424;-56
2023/11/29 00:48:41;;;;;;;2.55;1.80;;;;;;;;;;5183635;28;20038;-57
2023/11/29 00:51:12;;;;;;;4.00;2.05;;;;;;;;;;5183526;28;20166;-58
2023/11/29 00:53:43;;;;;;;2.47;1.90;;;;;;;;;;5183636;28;20128;-58
2023/11/29 00:56:15;;;;;;;3.03;1.70;;;;;;;;;;5182950;28;20468;-58
2023/11/29 00:58:46;;;;;;;2.67;1.85;;;;;;;;;;5198422;28;20492;-58
2023/11/29 01:01:17;;;;;;;1.83;1.40;;;;;;;;;;5184131;28;20041;-56
2023/11/29 01:03:49;;;;;;;3.28;1.83;;;;;;;;;;5198776;28;20041;-57
2023/11/29 01:06:20;;;;;;;3.00;1.85;;;;;;;;;;5199127;28;20048;-57
2023/11/29 01:08:52;;;;;;;3.25;2.15;;;;;;;;;;5184029;28;20038;-57
2023/11/29 01:11:23;;;;;;;2.85;1.85;;;;;;;;;;5183667;28;20469;-57
2023/11/29 01:13:55;;;;;;;2.10;1.60;;;;;;;;;;5183966;28;20429;-58
2023/11/29 01:16:26;;;;;;;4.22;1.83;;;;;;;;;;5183784;28;20041;-58
2023/11/29 01:18:58;;;;;;;4.57;1.50;;;;;;;;;;5199063;28;20053;-57
2023/11/29 01:21:29;;;;;;;3.90;1.77;;;;;;;;;;5198507;28;20042;-57
2023/11/29 01:24:00;;;;;;;2.85;1.77;;;;;;;;;;5183640;28;20041;-57
2023/11/29 01:26:32;;;;;;;2.88;1.83;;;;;;;;;;5198726;28;20060;-57
2023/11/29 01:29:03;;;;;;;3.60;1.77;;;;;;;;;;5181705;28;20053;-57
2023/11/29 01:31:34;;;;;;;3.13;1.77;;;;;;;;;;5182499;28;20313;-57
2023/11/29 01:34:05;;;;;;;2.40;1.80;;;;;;;;;;5183388;28;20053;-58
2023/11/29 01:36:41;;;;;;;2.90;2.00;;;;;;;;;;5198486;28;20085;-57
2023/11/29 01:39:14;;;;;;;3.25;1.77;;;;;;;;;;5182456;28;20512;-56
2023/11/29 01:41:46;;;;;;;3.58;1.92;;;;;;;;;;5183198;28;20107;-56
2023/11/29 01:44:17;;;;;;;3.88;1.92;;;;;;;;;;5181761;28;20045;-56
2023/11/29 01:46:48;;;;;;;2.23;1.53;;;;;;;;;;5182412;28;20077;-57
2023/11/29 01:49:20;;;;;;;1.90;1.70;;;;;;;;;;5183497;28;20419;-57
2023/11/29 01:51:51;;;;;;;3.72;1.70;;;;;;;;;;5198367;28;20042;-56
2023/11/29 01:54:23;;;;;;;3.90;2.10;;;;;;;;;;5198512;28;20030;-56
2023/11/29 01:56:54;;;;;;;3.78;2.15;;;;;;;;;;5183307;28;20041;-56
2023/11/29 02:02:52;;;;;;;2.60;1.63;;;;;;;;;;5182190;28;20500;-57
2023/11/29 02:05:24;;;;;;;3.40;1.63;;;;;;;;;;5182572;28;20061;-56
2023/11/29 02:07:55;;;;;;;2.17;1.38;;;;;;;;;;5182828;28;20042;-56
2023/11/29 02:10:26;;;;;;;1.95;1.48;;;;;;;;;;5182984;28;20127;-57
2023/11/29 02:12:57;;;;;;;2.53;1.10;;;;;;;;;;5197976;28;20053;-56
2023/11/29 02:15:28;;;;;;;1.92;1.20;;;;;;;;;;5181289;28;20103;-57
2023/11/29 02:17:59;;;;;;;3.78;1.58;;;;;;;;;;5181424;28;20129;-57
2023/11/29 02:20:31;;;;;;;1.90;1.60;;;;;;;;;;5180581;28;20034;-57
2023/11/29 02:23:05;;;;;;;2.03;1.60;;;;;;;;;;5183979;28;20047;-57
2023/11/29 02:25:37;;;;;;;2.38;1.52;;;;;;;;;;5201951;28;20048;-58
2023/11/29 02:28:08;;;;;;;1.40;1.20;;;;;;;;;;5201912;28;20114;-58
2023/11/29 02:30:39;;;;;;;2.25;1.45;;;;;;;;;;5186869;28;20465;-57
2023/11/29 02:33:10;;;;;;;2.03;1.33;;;;;;;;;;5178509;28;20056;-58
2023/11/29 02:35:41;;;;;;;2.78;1.60;;;;;;;;;;5186738;28;20438;-58
2023/11/29 02:38:12;;;;;;;1.85;1.45;;;;;;;;;;5185266;28;20042;-58
2023/11/29 02:40:46;;;;;;;2.08;1.88;;;;;;;;;;5185117;28;20053;-58
2023/11/29 02:43:17;;;;;;;2.05;1.40;;;;;;;;;;5185012;28;20116;-58
2023/11/29 02:45:48;;;;;;;3.88;1.52;;;;;;;;;;5186165;28;20068;-58
2023/11/29 02:48:19;;;;;;;2.35;1.52;;;;;;;;;;5185133;28;20041;-58
2023/11/29 02:50:50;;;;;;;1.73;1.45;;;;;;;;;;5185275;28;20038;-58
2023/11/29 02:53:21;;;;;;;1.63;1.50;;;;;;;;;;5184761;28;20263;-58
2023/11/29 02:55:52;;;;;;;2.10;1.15;;;;;;;;;;5201890;28;20334;-58
2023/11/29 02:58:24;;;;;;;3.05;1.38;;;;;;;;;;5201132;28;20041;-57
2023/11/29 03:00:55;;;;;;;2.03;1.45;;;;;;;;;;5200956;28;20103;-58
2023/11/29 03:03:26;;;;;;;1.98;1.48;;;;;;;;;;5201346;28;20042;-56
2023/11/29 03:05:57;;;;;;;2.83;1.38;;;;;;;;;;5185353;28;20042;-56
2023/11/29 03:08:28;;;;;;;1.30;1.20;;;;;;;;;;5184782;28;20045;-56
2023/11/29 03:11:01;;;;;;;1.63;1.27;;;;;;;;;;5201398;28;20350;-56
2023/11/29 03:13:32;;;;;;;1.38;1.10;;;;;;;;;;5184470;28;20042;-56
2023/11/29 03:16:03;;;;;;;1.17;1.02;;;;;;;;;;5201148;28;20183;-58
2023/11/29 03:18:34;;;;;;;2.80;1.20;;;;;;;;;;5201685;28;20069;-57
2023/11/29 03:21:05;;;;;;;3.47;1.10;;;;;;;;;;5184552;28;20042;-57
2023/11/29 03:23:37;;;;;;;1.40;1.10;;;;;;;;;;5200925;28;20042;-56
2023/11/29 03:26:09;;;;;;;1.13;1.00;;;;;;;;;;5184332;28;20125;-57
2023/11/29 03:28:40;;;;;;;1.27;1.15;;;;;;;;;;5200870;28;20042;-56
2023/11/29 03:31:11;;;;;;;1.30;1.20;;;;;;;;;;5184346;28;20038;-56
2023/11/29 03:33:42;;;;;;;2.53;1.25;;;;;;;;;;5200504;28;20042;-56
2023/11/29 03:36:13;;;;;;;2.17;1.25;;;;;;;;;;5184776;28;20473;-57
2023/11/29 03:38:45;;;;;;;1.40;1.25;;;;;;;;;;5184506;28;20076;-57
2023/11/29 03:41:16;;;;;;;1.42;1.23;;;;;;;;;;5184047;28;20050;-57
2023/11/29 03:43:47;;;;;;;2.47;1.70;;;;;;;;;;5183950;28;20050;-57
2023/11/29 03:46:18;;;;;;;2.15;1.58;;;;;;;;;;5184807;28;20077;-58
2023/11/29 03:48:49;;;;;;;3.65;1.55;;;;;;;;;;5183279;28;20121;-57
2023/11/29 03:51:20;;;;;;;2.00;1.48;;;;;;;;;;5184344;28;20037;-58
2023/11/29 03:53:51;;;;;;;2.40;1.57;;;;;;;;;;5183800;28;20117;-58
2023/11/29 03:56:22;;;;;;;2.72;1.08;;;;;;;;;;5167278;28;20034;-58
2023/11/29 03:58:54;;;;;;;2.35;1.10;;;;;;;;;;5167824;28;20123;-57
2023/11/29 04:01:25;;;;;;;1.50;1.25;;;;;;;;;;5184229;28;20553;-57
2023/11/29 04:03:56;;;;;;;1.55;1.23;;;;;;;;;;5184201;28;20042;-58
2023/11/29 04:06:28;;;;;;;1.92;1.20;;;;;;;;;;5183327;28;20184;-57
2023/11/29 04:08:59;;;;;;;1.30;1.10;;;;;;;;;;5183842;28;20568;-57
2023/11/29 04:11:31;;;;;;;1.30;1.00;;;;;;;;;;5183571;28;20073;-57
2023/11/29 04:14:02;;;;;;;1.52;1.13;;;;;;;;;;5183342;28;20037;-58
2023/11/29 04:16:35;;;;;;;2.22;0.75;;;;;;;;;;5199919;28;20034;-57
2023/11/29 04:19:06;;;;;;;1.50;1.10;;;;;;;;;;5184108;28;20130;-57
2023/11/29 04:21:37;;;;;;;1.77;1.35;;;;;;;;;;5200029;28;20077;-58
2023/11/29 04:24:08;;;;;;;1.45;1.10;;;;;;;;;;5183033;28;20165;-56
2023/11/29 04:26:41;;;;;;;4.10;1.30;;;;;;;;;;5183063;28;20077;-56
2023/11/29 04:29:12;;;;;;;2.80;1.40;;;;;;;;;;5184558;28;20361;-56
2023/11/29 04:31:44;;;;;;;1.30;0.93;;;;;;;;;;5184091;28;20041;-56
2023/11/29 04:34:15;;;;;;;;;;;;;;;;;;5179767;28;20046;-56
2023/11/29 04:36:46;;;;;;;2.28;1.40;;;;;;;;;;5179623;28;19924;-56
2023/11/29 04:39:18;;;;;;;2.78;1.27;;;;;;;;;;5183492;28;20136;-57
2023/11/29 04:41:50;;;;;;;1.77;1.33;;;;;;;;;;5184341;28;20449;-58
2023/11/29 04:44:21;;;;;;;2.40;1.45;;;;;;;;;;5183195;28;20050;-56
2023/11/29 04:46:52;;;;;;;2.28;1.05;;;;;;;;;;5182503;28;20049;-57
2023/11/29 04:49:23;;;;;;;2.97;1.60;;;;;;;;;;5199693;28;20128;-56
2023/11/29 04:51:55;;;;;;;1.58;1.00;;;;;;;;;;5182667;28;20049;-57
2023/11/29 04:54:26;;;;;;;3.40;1.45;;;;;;;;;;5182809;28;20125;-57
2023/11/29 04:56:57;;;;;;;3.50;1.42;;;;;;;;;;5183015;28;20096;-57
2023/11/29 04:59:28;;;;;;;2.20;1.52;;;;;;;;;;5199604;28;20463;-56
2023/11/29 05:01:59;;;;;;;3.40;2.03;;;;;;;;;;5198649;28;20052;-58
2023/11/29 05:04:30;;;;;;;3.60;1.85;;;;;;;;;;5165965;28;20041;-57
2023/11/29 05:07:01;;;;;;;3.45;1.65;;;;;;;;;;5199231;28;20126;-56
2023/11/29 05:09:32;;;;;;;2.90;1.90;;;;;;;;;;5198761;28;20049;-58
2023/11/29 05:12:04;;;;;;;3.22;1.65;;;;;;;;;;5182562;28;20058;-56
2023/11/29 05:14:35;;;;;;;3.95;1.90;;;;;;;;;;5182842;28;20145;-56
2023/11/29 05:17:06;;;;;;;3.00;1.58;;;;;;;;;;5182474;28;20040;-56
2023/11/29 05:19:37;;;;;;;3.15;1.63;;;;;;;;;;5182252;28;20519;-59
2023/11/29 05:22:08;;;;;;;3.38;1.90;;;;;;;;;;5181895;28;20100;-59
2023/11/29 05:24:41;;;;;;;2.58;1.90;;;;;;;;;;5181493;28;20413;-61
2023/11/29 05:27:12;;;;;;;4.13;1.90;;;;;;;;;;5168929;28;20046;-58
2023/11/29 05:29:43;;;;;;;4.03;2.20;;;;;;;;;;5171476;28;20049;-59
2023/11/29 05:32:14;;;;;;;4.28;2.20;;;;;;;;;;5191080;28;20389;-59
2023/11/29 05:34:45;;;;;;;4.47;2.20;;;;;;;;;;5183374;28;20128;-59
2023/11/29 05:37:16;;;;;;;4.45;2.20;;;;;;;;;;5175513;28;20529;-59
2023/11/29 05:39:48;;;;;;;3.13;2.20;;;;;;;;;;5182535;28;20504;-57
2023/11/29 05:42:20;;;;;;;4.70;2.13;;;;;;;;;;5170166;28;20095;-59
2023/11/29 05:44:54;;;;;;;2.47;1.58;;;;;;;;;;5164301;28;20045;-58
2023/11/29 05:47:25;;;;;;;3.70;2.20;;;;;;;;;;5149819;28;20045;-57
2023/11/29 05:49:57;;;;;;;4.03;1.95;;;;;;;;;;5175230;28;20038;-57
2023/11/29 05:52:28;;;;;;;2.88;2.13;;;;;;;;;;5179348;28;20493;-58
2023/11/29 05:55:02;;;;;;;3.20;1.87;;;;;;;;;;5179752;28;20124;-58
2023/11/29 05:57:34;;;;;;;2.40;1.20;;;;;;;;;;5178818;28;20042;-58
2023/11/29 06:00:08;;;;;;;;;;;;;;;;;;5179873;28;20042;-58
2023/11/29 06:02:40;;;;;;;2.33;1.50;;;;;;;;;;5180015;28;19927;-57
2023/11/29 06:05:11;;;;;;;3.53;1.50;;;;;;;;;;5178934;28;20432;-58
2023/11/29 06:07:43;;;;;;;3.27;1.93;;;;;;;;;;5183255;28;20060;-57
2023/11/29 06:10:14;;;;;;;2.35;1.65;;;;;;;;;;5179534;28;20076;-57
2023/11/29 06:12:46;;;;;;;2.05;1.20;;;;;;;;;;5179768;28;20066;-57
2023/11/29 06:15:18;;;;;;;2.63;1.50;;;;;;;;;;5180335;28;20080;-58
2023/11/29 06:17:49;;;;;;;3.47;1.70;;;;;;;;;;5180085;28;20081;-57
2023/11/29 06:20:21;;;;;;;2.28;1.35;;;;;;;;;;5180451;28;20046;-57
2023/11/29 06:22:53;;;;;;;3.17;1.33;;;;;;;;;;5179318;28;20045;-57
2023/11/29 06:25:24;;;;;;;1.92;1.17;;;;;;;;;;5180456;28;20060;-57
2023/11/29 06:27:55;;;;;;;2.08;1.17;;;;;;;;;;5178452;28;20128;-57
2023/11/29 06:30:26;;;;;;;2.33;1.10;;;;;;;;;;5148922;28;20046;-57
2023/11/29 06:32:57;;;;;;;1.88;1.10;;;;;;;;;;5165303;28;20129;-57
2023/11/29 06:35:29;;;;;;;1.95;1.20;;;;;;;;;;5165544;28;20156;-57
2023/11/29 06:38:00;;;;;;;1.93;1.30;;;;;;;;;;5166203;28;20404;-57
2023/11/29 06:40:33;;;;;;;2.07;1.30;;;;;;;;;;5165859;28;20848;-57
2023/11/29 06:43:04;;;;;;;1.92;1.10;;;;;;;;;;5165861;28;20566;-56
2023/11/29 06:45:35;;;;;;;1.38;0.95;;;;;;;;;;5182400;28;20057;-57
2023/11/29 06:48:07;;;;;;;2.45;1.33;;;;;;;;;;5182845;28;20443;-58
2023/11/29 06:50:38;;;;;;;3.67;1.35;;;;;;;;;;5182666;28;20455;-57
2023/11/29 06:53:09;;;;;;;1.92;1.38;;;;;;;;;;5182902;28;20038;-57
2023/11/29 06:55:40;;;;;;;2.03;1.43;;;;;;;;;;5177993;28;20045;-57
2023/11/29 06:58:11;;;;;;;2.42;1.58;;;;;;;;;;5179828;28;20363;-57
2023/11/29 07:00:43;;;;;;;2.05;1.33;;;;;;;;;;5179822;28;20050;-56
2023/11/29 07:03:15;;;;;;;2.17;1.58;;;;;;;;;;5179316;28;20053;-57
2023/11/29 07:05:46;;;;;;;2.03;1.52;;;;;;;;;;5179290;28;20072;-56
2023/11/29 07:08:17;;;;;;;3.70;1.60;;;;;;;;;;5173270;28;20045;-56
2023/11/29 07:10:48;;;;;;;2.25;1.65;;;;;;;;;;5168262;28;20827;-57
2023/11/29 07:13:19;;;;;;;3.00;2.10;;;;;;;;;;5177197;28;20033;-57
2023/11/29 07:15:56;;;;;;;3.55;2.10;;;;;;;;;;5176967;28;20500;-56
2023/11/29 07:18:27;;;;;;;2.60;2.00;;;;;;;;;;5174926;28;20449;-56
2023/11/29 07:20:58;;;;;;;13.20;6.25;;;;;;;;;;5168808;28;20045;-55
2023/11/29 07:23:29;;;;;;;5.63;2.37;;;;;;;;;;5160062;28;20406;-56
2023/11/29 07:26:00;;;;;;;5.82;2.42;;;;;;;;;;5157197;28;20484;-56
2023/11/29 07:28:31;;;;;;;4.47;2.70;;;;;;;;;;5173992;28;20119;-57
2023/11/29 07:31:07;;;;;;;3.50;2.58;;;;;;;;;;5168035;28;20107;-57
2023/11/29 07:33:38;;;;;;;3.90;2.10;;;;;;;;;;5178386;28;20046;-57
2023/11/29 07:36:13;;;;;;;4.13;3.00;;;;;;;;;;5176867;28;20397;-57
2023/11/29 07:38:45;;;;;;;7.15;3.90;;;;;;;;;;5171231;28;20290;-56
2023/11/29 07:41:17;;;;;;;;;;;;;;;;;;5173029;28;20085;-57
2023/11/29 07:43:49;;;;;;;5.90;4.03;;;;;;;;;;5170844;28;19974;-57
2023/11/29 07:46:20;;;;;;;5.75;3.75;;;;;;;;;;5169825;28;20135;-55
2023/11/29 07:48:51;;;;;;;4.82;3.55;;;;;;;;;;5166905;28;20126;-57
2023/11/29 07:51:24;;;;;;;4.13;3.40;;;;;;;;;;5169694;28;20044;-57
2023/11/29 07:53:56;;;;;;;5.85;3.55;;;;;;;;;;5152283;28;20062;-56
2023/11/29 07:56:27;;;;;;;4.35;3.20;;;;;;;;;;5169561;28;20125;-57
2023/11/29 07:58:58;;;;;;;4.90;3.03;;;;;;;;;;5160415;28;20042;-57
2023/11/29 08:01:29;;;;;;;5.38;3.40;;;;;;;;;;5169920;28;20041;-57
2023/11/29 08:04:00;;;;;;;4.88;3.40;;;;;;;;;;5161671;28;20042;-57
2023/11/29 08:06:32;;;;;;;5.05;3.30;;;;;;;;;;5183377;28;20370;-57
2023/11/29 08:09:03;;;;;;;;;;;;;;;;;;5173042;28;20053;-57
2023/11/29 08:11:34;;;;;;;7.25;3.85;;;;;;;;;;5182828;28;19918;-57
2023/11/29 08:14:06;;;;;;;7.03;4.70;;;;;;;;;;5182617;28;20045;-57
2023/11/29 08:16:37;;;;;;;6.75;4.57;;;;;;;;;;5175953;28;20038;-56
2023/11/29 08:19:08;;;;;;;6.40;4.28;;;;;;;;;;5182419;28;20037;-56
2023/11/29 08:21:39;;;;;;;4.55;3.47;;;;;;;;;;5167202;28;20064;-56
2023/11/29 08:24:12;;;;;;;4.70;3.10;;;;;;;;;;5181013;28;20056;-57
2023/11/29 08:26:44;;;;;;;5.43;2.92;;;;;;;;;;5179764;28;20136;-57
2023/11/29 08:29:15;;;;;;;7.30;2.95;;;;;;;;;;5173016;28;20046;-56
2023/11/29 08:31:46;;;;;;;4.25;2.72;;;;;;;;;;5182726;28;20111;-57
2023/11/29 08:34:17;;;;;;;4.07;2.85;;;;;;;;;;5182485;28;20042;-56
2023/11/29 08:36:48;;;;;;;5.22;3.33;;;;;;;;;;5176499;28;20096;-56
2023/11/29 08:39:21;;;;;;;5.53;3.50;;;;;;;;;;5179631;28;20053;-56
2023/11/29 08:41:52;;;;;;;4.82;3.08;;;;;;;;;;5191189;28;20132;-56
2023/11/29 08:44:23;;;;;;;4.43;2.60;;;;;;;;;;5167213;28;20056;-56
2023/11/29 08:46:54;;;;;;;3.60;2.47;;;;;;;;;;5166468;28;20053;-57
2023/11/29 08:49:25;;;;;;;6.82;3.30;;;;;;;;;;5159609;28;20143;-56
2023/11/29 08:51:57;;;;;;;7.47;3.58;;;;;;;;;;5177617;28;20099;-56
2023/11/29 08:54:28;;;;;;;5.97;3.83;;;;;;;;;;5177651;28;20515;-56
2023/11/29 08:56:59;;;;;;;9.02;4.15;;;;;;;;;;5173688;28;20033;-56
2023/11/29 08:59:30;;;;;;;4.53;3.40;;;;;;;;;;5176793;28;20373;-56
2023/11/29 09:02:02;;;;;;;7.72;3.90;;;;;;;;;;5173449;28;20038;-56
2023/11/29 09:04:33;;;;;;;6.53;4.20;;;;;;;;;;5174652;28;20342;-55
2023/11/29 09:07:05;;;;;;;4.93;3.67;;;;;;;;;;5174216;28;20041;-56
2023/11/29 09:09:36;;;;;;;5.13;3.60;;;;;;;;;;5195147;28;20048;-55
2023/11/29 09:12:08;;;;;;;4.80;3.92;;;;;;;;;;5182000;28;20038;-55
2023/11/29 09:14:39;;;;;;;5.60;3.57;;;;;;;;;;5182100;28;20117;-55
2023/11/29 09:17:10;;;;;;;5.07;3.80;;;;;;;;;;5181441;28;20096;-54
2023/11/29 09:19:43;;;;;;;5.88;3.55;;;;;;;;;;5181202;28;20074;-55
2023/11/29 09:22:14;;;;;;;5.20;3.05;;;;;;;;;;5178484;28;20065;-55
2023/11/29 09:24:45;;;;;;;4.22;2.95;;;;;;;;;;5173380;28;20068;-56
2023/11/29 09:27:17;;;;;;;4.13;2.85;;;;;;;;;;5178332;28;20133;-55
2023/11/29 09:29:49;;;;;;;4.32;2.60;;;;;;;;;;5169703;28;20192;-55
2023/11/29 09:32:20;;;;;;;;;;;;;;;;;;5181744;28;20054;-55
2023/11/29 09:34:51;;;;;;;4.25;2.67;;;;;;;;;;5157118;28;19917;-55
2023/11/29 09:37:22;;;;;;;3.63;2.93;;;;;;;;;;5181297;28;20057;-55
2023/11/29 09:39:54;;;;;;;5.22;2.65;;;;;;;;;;5180927;28;20322;-55
2023/11/29 09:42:28;;;;;;;5.17;2.50;;;;;;;;;;5179621;28;20142;-56
2023/11/29 09:45:00;;;;;;;4.13;2.30;;;;;;;;;;5180246;28;20487;-57
2023/11/29 09:47:31;;;;;;;3.15;2.38;;;;;;;;;;5176538;28;20045;-56
2023/11/29 09:50:02;;;;;;;4.97;2.53;;;;;;;;;;5176235;28;20469;-56
2023/11/29 09:52:33;;;;;;;3.50;2.33;;;;;;;;;;5172488;28;20499;-56
2023/11/29 09:55:05;;;;;;;3.53;2.40;;;;;;;;;;5178240;28;20033;-58
2023/11/29 09:57:36;;;;;;;3.47;2.10;;;;;;;;;;5174836;28;20034;-56
2023/11/29 10:00:12;;;;;;;2.83;1.60;;;;;;;;;;5175310;28;20049;-57
2023/11/29 10:02:43;;;;;;;3.40;2.33;;;;;;;;;;5178318;28;20562;-58
2023/11/29 10:05:14;;;;;;;4.17;2.37;;;;;;;;;;5180100;28;20077;-55
2023/11/29 10:07:46;;;;;;;4.57;2.27;;;;;;;;;;5175852;28;20049;-55
2023/11/29 10:10:17;;;;;;;3.50;2.30;;;;;;;;;;5160616;28;20128;-56
2023/11/29 10:12:48;;;;;;;3.40;1.77;;;;;;;;;;5181223;28;20053;-58
2023/11/29 10:15:19;;;;;;;1.70;1.20;;;;;;;;;;5183123;28;20041;-56
2023/11/29 10:17:51;;;;;;;1.95;1.15;;;;;;;;;;5181396;28;20049;-57
2023/11/29 10:20:26;;;;;;;2.70;1.20;;;;;;;;;;5180604;28;20046;-56
2023/11/29 10:22:57;;;;;;;1.45;0.90;;;;;;;;;;5181198;28;20045;-58
2023/11/29 10:25:32;;;;;;;1.53;1.13;;;;;;;;;;5181747;28;20045;-57
2023/11/29 10:28:03;;;;;;;1.67;0.88;;;;;;;;;;5182793;28;20065;-58
2023/11/29 10:30:34;;;;;;;0.80;0.60;;;;;;;;;;5183000;28;20034;-57
2023/11/29 10:33:09;;;;;;;1.90;1.00;;;;;;;;;;5180652;28;20512;-58
2023/11/29 10:35:41;;;;;;;1.65;0.75;;;;;;;;;;5180950;28;20282;-57
2023/11/29 10:38:12;;;;;;;1.67;0.95;;;;;;;;;;5181248;28;20050;-56
2023/11/29 10:40:45;;;;;;;1.35;0.90;;;;;;;;;;5170559;28;20062;-56
2023/11/29 10:43:20;;;;;;;1.25;0.75;;;;;;;;;;5182749;28;20071;-57
2023/11/29 10:45:54;;;;;;;1.58;0.82;;;;;;;;;;5174366;28;20148;-56
2023/11/29 10:48:27;;;;;;;1.70;0.80;;;;;;;;;;5177019;28;20229;-56
2023/11/29 10:50:58;;;;;;;1.25;0.65;;;;;;;;;;5153463;28;20171;-57
2023/11/29 10:53:31;;;;;;;1.25;0.70;;;;;;;;;;5178491;28;20045;-58
2023/11/29 10:56:03;;;;;;;2.42;0.95;;;;;;;;;;5180711;28;20375;-55
2023/11/29 10:58:46;;;;;;;1.83;1.17;;;;;;;;;;5169450;28;20050;-57
2023/11/29 11:01:31;;;;;;;2.03;0.90;;;;;;;;;;5181784;28;20049;-57
2023/11/29 11:04:08;;;;;;;1.35;1.00;;;;;;;;;;5172771;28;20045;-57
2023/11/29 11:06:40;;;;;;;1.90;1.10;;;;;;;;;;5177419;28;20050;-56
2023/11/29 11:09:31;;;;;;;1.48;0.80;;;;;;;;;;5180068;28;20060;-56
2023/11/29 11:12:03;;;;;;;1.48;0.85;;;;;;;;;;5163149;28;20357;-55
2023/11/29 11:14:37;;;;;;;2.30;0.88;;;;;;;;;;5177286;28;20034;-56
2023/11/29 11:17:10;;;;;;;5.53;1.00;;;;;;;;;;5186108;28;20088;-57
2023/11/29 11:19:41;;;;;;;3.88;1.35;;;;;;;;;;5159575;28;20053;-57
2023/11/29 11:22:14;;;;;;;4.43;1.70;;;;;;;;;;5178737;28;20036;-56
2023/11/29 11:24:54;;;;;;;3.63;1.88;;;;;;;;;;5185597;28;20088;-56
2023/11/29 11:27:29;;;;;;;3.05;1.30;;;;;;;;;;5192937;28;20467;-56
2023/11/29 11:30:25;;;;;;;2.50;1.02;;;;;;;;;;5168777;28;20073;-56
2023/11/29 11:32:57;;;;;;;2.17;1.05;;;;;;;;;;5161015;28;20050;-58
2023/11/29 11:35:28;;;;;;;4.78;1.10;;;;;;;;;;5168404;28;20077;-56
2023/11/29 11:38:09;;;;;;;2.15;1.10;;;;;;;;;;5185707;28;20529;-57
2023/11/29 11:40:41;;;;;;;2.13;1.02;;;;;;;;;;5151967;28;20115;-57
2023/11/29 11:43:12;;;;;;;1.92;1.15;;;;;;;;;;5168254;28;20045;-57
2023/11/29 11:45:45;;;;;;;1.80;1.00;;;;;;;;;;5185684;28;20386;-55
2023/11/29 11:48:16;;;;;;;3.55;1.15;;;;;;;;;;5168393;28;20766;-56
2023/11/29 11:50:48;;;;;;;2.63;1.33;;;;;;;;;;5167938;28;20048;-55
2023/11/29 11:53:19;;;;;;;1.75;1.20;;;;;;;;;;5168127;28;20108;-54
2023/11/29 11:55:51;;;;;;;2.57;1.23;;;;;;;;;;5167795;28;20050;-55
2023/11/29 11:58:22;;;;;;;;;;;;;;;;;;5168523;28;20391;-54
2023/11/29 12:00:53;;;;;;;3.70;1.10;;;;;;;;;;5172437;28;19921;-54
2023/11/29 12:03:24;;;;;;;2.00;1.20;;;;;;;;;;5185064;28;20038;-54
2023/11/29 12:05:55;;;;;;;2.70;1.13;;;;;;;;;;5176806;28;20038;-53
2023/11/29 12:08:26;;;;;;;2.80;1.17;;;;;;;;;;5173192;28;20069;-55
2023/11/29 12:10:57;;;;;;;2.03;1.10;;;;;;;;;;5175734;28;20049;-54
2023/11/29 12:13:28;;;;;;;3.15;1.10;;;;;;;;;;5184962;28;20412;-57
2023/11/29 12:16:01;;;;;;;4.13;1.17;;;;;;;;;;5168333;28;20034;-56
2023/11/29 12:18:32;;;;;;;2.20;0.98;;;;;;;;;;5180777;28;20042;-56
2023/11/29 12:21:03;;;;;;;1.50;1.05;;;;;;;;;;5179144;28;20038;-55
2023/11/29 12:23:34;;;;;;;2.35;1.27;;;;;;;;;;5180457;28;20443;-56
2023/11/29 12:26:06;;;;;;;1.90;1.20;;;;;;;;;;5179953;28;20042;-55
2023/11/29 12:28:37;;;;;;;2.35;1.50;;;;;;;;;;5178191;28;20088;-55
2023/11/29 12:31:09;;;;;;;2.70;1.30;;;;;;;;;;5184819;28;20338;-55
2023/11/29 12:33:40;;;;;;;1.20;0.77;;;;;;;;;;5151152;28;20050;-55
2023/11/29 12:36:11;;;;;;;2.57;1.30;;;;;;;;;;5184708;28;20076;-55
2023/11/29 12:38:42;;;;;;;1.75;0.98;;;;;;;;;;5150866;28;20100;-54
2023/11/29 12:41:14;;;;;;;3.13;1.38;;;;;;;;;;5167557;28;20046;-56
2023/11/29 12:43:45;;;;;;;2.35;1.00;;;;;;;;;;5176631;28;20045;-55
2023/11/29 12:46:16;;;;;;;2.97;1.60;;;;;;;;;;5184687;28;20054;-56
2023/11/29 12:48:47;;;;;;;1.27;0.98;;;;;;;;;;5166276;28;20303;-54
2023/11/29 12:51:18;;;;;;;2.00;0.70;;;;;;;;;;5184185;28;20046;-55
2023/11/29 12:53:50;;;;;;;2.35;1.25;;;;;;;;;;5166414;28;20096;-54
2023/11/29 12:56:21;;;;;;;0.95;0.50;;;;;;;;;;5184269;28;20481;-53
2023/11/29 12:58:52;;;;;;;3.00;0.63;;;;;;;;;;5167240;28;20045;-53
2023/11/29 13:01:23;;;;;;;0.73;0.37;;;;;;;;;;5167739;28;20497;-55
2023/11/29 13:03:54;;;;;;;0.97;0.40;;;;;;;;;;5151495;28;20144;-53
2023/11/29 13:06:26;;;;;;;3.08;1.10;;;;;;;;;;5166714;28;20050;-53
2023/11/29 13:08:58;;;;;;;1.95;0.60;;;;;;;;;;5183901;28;20080;-54
2023/11/29 13:11:29;;;;;;;2.38;0.50;;;;;;;;;;5166668;28;20065;-53
2023/11/29 13:14:00;;;;;;;1.80;0.63;;;;;;;;;;5156965;28;20399;-53
2023/11/29 13:16:31;;;;;;;1.70;0.50;;;;;;;;;;5169810;28;20044;-54
2023/11/29 13:19:03;;;;;;;0.80;0.50;;;;;;;;;;5167249;28;20481;-54
2023/11/29 13:21:36;;;;;;;1.65;0.30;;;;;;;;;;5167449;28;20389;-55
2023/11/29 13:24:07;;;;;;;1.63;0.40;;;;;;;;;;5166378;28;20042;-53
2023/11/29 13:26:38;;;;;;;2.47;0.47;;;;;;;;;;5167074;28;20050;-54
2023/11/29 13:29:10;;;;;;;0.73;0.40;;;;;;;;;;5167158;28;20049;-54
2023/11/29 13:31:41;;;;;;;1.30;0.70;;;;;;;;;;5181070;28;20049;-55
2023/11/29 13:34:12;;;;;;;0.93;0.60;;;;;;;;;;5180575;28;20046;-53
2023/11/29 13:36:43;;;;;;;1.13;0.73;;;;;;;;;;5180956;28;20654;-55
2023/11/29 13:39:14;;;;;;;1.80;0.50;;;;;;;;;;5179517;28;20045;-55
2023/11/29 13:41:45;;;;;;;2.07;0.50;;;;;;;;;;5180172;28;20477;-55
2023/11/29 13:44:17;;;;;;;0.97;0.37;;;;;;;;;;5177338;28;20275;-55
2023/11/29 13:46:49;;;;;;;0.73;0.32;;;;;;;;;;5195683;28;20046;-55
2023/11/29 13:49:20;;;;;;;1.20;0.50;;;;;;;;;;5177687;28;20038;-56
2023/11/29 13:51:51;;;;;;;1.23;0.52;;;;;;;;;;5178717;28;20097;-56
2023/11/29 13:54:22;;;;;;;0.60;0.30;;;;;;;;;;5178412;28;20077;-54
2023/11/29 13:56:53;;;;;;;0.60;0.27;;;;;;;;;;5177102;28;20038;-55
2023/11/29 13:59:24;;;;;;;1.70;0.60;;;;;;;;;;5172239;28;20524;-55
2023/11/29 14:01:56;;;;;;;0.60;0.40;;;;;;;;;;5177438;28;20046;-55
2023/11/29 14:04:27;;;;;;;0.53;0.30;;;;;;;;;;5180492;28;20333;-55
2023/11/29 14:06:58;;;;;;;0.30;0.20;;;;;;;;;;5182860;28;20050;-55
2023/11/29 14:09:29;;;;;;;0.80;0.53;;;;;;;;;;5176011;28;20175;-55
2023/11/29 14:12:01;;;;;;;0.60;0.30;;;;;;;;;;5167416;28;20066;-54
2023/11/29 14:14:32;;;;;;;;;;;;;;;;;;5149965;28;20037;-55
2023/11/29 14:17:03;;;;;;;0.22;0.20;;;;;;;;;;5166464;28;20271;-55
2023/11/29 14:19:34;;;;;;;0.35;0.20;;;;;;;;;;5167912;28;20120;-56
2023/11/29 14:22:09;;;;;;;0.50;0.30;;;;;;;;;;5152992;28;20129;-56
2023/11/29 14:24:41;;;;;;;1.08;0.57;;;;;;;;;;5153373;28;20046;-56
2023/11/29 14:27:12;;;;;;;0.80;0.50;;;;;;;;;;5182212;28;20049;-56
2023/11/29 14:29:44;;;;;;;0.70;0.20;;;;;;;;;;5186835;28;20097;-56
2023/11/29 14:32:15;;;;;;;3.88;0.57;;;;;;;;;;5176142;28;20045;-58
2023/11/29 14:34:46;;;;;;;;;;;;;;;;;;5153404;28;20042;-58
2023/11/29 14:37:18;;;;;;;0.95;0.40;;;;;;;;;;5169572;28;19940;-57
2023/11/29 14:39:49;;;;;;;1.63;0.40;;;;;;;;;;5173408;28;20037;-61
2023/11/29 14:42:21;;;;;;;2.07;0.50;;;;;;;;;;5175738;28;20129;-59
2023/11/29 14:44:53;;;;;;;2.20;0.40;;;;;;;;;;5183021;28;20619;-61
2023/11/29 14:47:24;;;;;;;0.93;0.32;;;;;;;;;;5188199;28;20485;-59
2023/11/29 14:49:55;;;;;;;0.60;0.30;;;;;;;;;;5156451;28;20087;-59
2023/11/29 14:52:26;;;;;;;1.23;0.50;;;;;;;;;;5155309;28;20353;-60
2023/11/29 14:54:57;;;;;;;2.07;0.40;;;;;;;;;;5176835;28;20522;-58
2023/11/29 14:57:28;;;;;;;1.33;0.50;;;;;;;;;;5167129;28;20049;-59
2023/11/29 15:00:00;;;;;;;0.82;0.40;;;;;;;;;;5184384;28;20053;-59
2023/11/29 15:02:31;;;;;;;1.27;0.50;;;;;;;;;;5184733;28;20416;-60
2023/11/29 15:05:02;;;;;;;2.00;0.37;;;;;;;;;;5184099;28;20140;-59
2023/11/29 15:07:33;;;;;;;1.87;0.33;;;;;;;;;;5168348;28;20048;-59
2023/11/29 15:10:05;;;;;;;1.37;0.57;;;;;;;;;;5151837;28;20049;-58
2023/11/29 15:12:36;;;;;;;1.33;0.60;;;;;;;;;;5184418;28;20042;-59
2023/11/29 15:15:07;;;;;;;1.60;0.50;;;;;;;;;;5184150;28;20037;-58